Time;durP1;ratioP1;P1;durP2;ratioP2;P2;SDS_P1;SDS_P2;PMS_P1;PMS_P2;Temp;Humidity;BMP_temperature;BMP_pressure;BME280_temperature;BME280_humidity;BME280_pressure;Samples;Min_cycle;Max_cycle;Signal;HPM_P1;HPM_P2
2023/05/21 00:01:44;;;;;;;8.20;4.10;;;14.30;99.90;;;;;;5036175;28;21982;-58
2023/05/21 00:04:11;;;;;;;7.93;4.28;;;14.20;99.90;;;;;;5029117;28;20130;-58
2023/05/21 00:06:37;;;;;;;8.73;4.20;;;14.20;99.90;;;;;;5034458;28;20037;-56
2023/05/21 00:09:04;;;;;;;7.20;4.50;;;14.20;99.90;;;;;;5028547;28;20064;-58
2023/05/21 00:11:31;;;;;;;8.43;4.40;;;14.20;99.90;;;;;;5014630;28;20048;-58
2023/05/21 00:13:57;;;;;;;7.28;4.07;;;14.20;99.90;;;;;;5036258;28;20060;-57
2023/05/21 00:16:23;;;;;;;8.43;4.50;;;14.20;99.90;;;;;;5035917;28;20051;-56
2023/05/21 00:18:49;;;;;;;7.20;4.32;;;14.20;99.90;;;;;;5034338;28;20068;-57
2023/05/21 00:21:16;;;;;;;8.63;4.35;;;14.20;99.90;;;;;;5035772;28;20397;-57
2023/05/21 00:23:42;;;;;;;8.15;4.53;;;14.10;99.90;;;;;;5037840;28;20899;-57
2023/05/21 00:26:08;;;;;;;5.45;4.45;;;14.10;99.90;;;;;;5028745;28;20508;-57
2023/05/21 00:28:34;;;;;;;6.68;4.20;;;14.10;99.90;;;;;;5038237;28;20053;-56
2023/05/21 00:31:00;;;;;;;9.15;4.72;;;14.10;99.90;;;;;;5035044;28;20052;-57
2023/05/21 00:33:28;;;;;;;6.78;4.95;;;14.10;99.90;;;;;;5034916;28;20040;-57
2023/05/21 00:35:55;;;;;;;9.30;4.78;;;14.10;99.90;;;;;;5039751;28;20110;-56
2023/05/21 00:38:22;;;;;;;7.18;4.75;;;14.10;99.90;;;;;;5019420;28;20128;-57
2023/05/21 00:40:48;;;;;;;6.57;4.50;;;14.10;99.90;;;;;;5033449;28;20041;-57
2023/05/21 00:43:14;;;;;;;6.00;4.03;;;14.10;99.90;;;;;;5038821;28;20075;-58
2023/05/21 00:45:45;;;;;;;8.50;4.28;;;14.10;99.90;;;;;;5034379;28;20043;-57
2023/05/21 00:48:13;;;;;;;6.30;4.38;;;14.10;99.90;;;;;;5036800;28;20045;-55
2023/05/21 00:50:40;;;;;;;7.03;4.32;;;14.00;99.90;;;;;;5038869;28;20443;-57
2023/05/21 00:53:09;;;;;;;6.03;4.30;;;14.10;99.90;;;;;;5033535;28;20061;-56
2023/05/21 00:55:39;;;;;;;5.63;4.30;;;14.00;99.90;;;;;;5025831;28;20457;-57
2023/05/21 00:58:06;;;;;;;10.60;4.28;;;14.00;99.90;;;;;;5026604;28;20037;-58
2023/05/21 01:00:33;;;;;;;6.85;4.03;;;14.00;99.90;;;;;;5038438;28;20045;-57
2023/05/21 01:03:00;;;;;;;10.85;4.53;;;14.00;99.90;;;;;;5036323;28;20049;-56
2023/05/21 01:05:29;;;;;;;7.82;4.40;;;14.00;99.90;;;;;;5033142;28;20488;-57
2023/05/21 01:07:57;;;;;;;6.25;4.28;;;14.00;99.90;;;;;;5028993;28;20135;-56
2023/05/21 01:10:24;;;;;;;8.32;4.25;;;14.00;99.90;;;;;;5039145;28;20053;-56
2023/05/21 01:12:51;;;;;;;8.73;4.50;;;14.00;99.90;;;;;;5033489;28;20346;-57
2023/05/21 01:15:17;;;;;;;8.43;4.70;;;14.00;99.90;;;;;;5037225;28;20128;-56
2023/05/21 01:17:47;;;;;;;8.50;4.72;;;14.00;99.90;;;;;;5035757;28;20049;-57
2023/05/21 01:20:17;;;;;;;7.10;4.43;;;14.00;99.90;;;;;;5037344;28;20056;-56
2023/05/21 01:23:09;;;;;;;7.28;4.63;;;14.00;99.90;;;;;;5038322;28;20044;-57
2023/05/21 01:25:35;;;;;;;8.40;4.70;;;14.00;99.90;;;;;;5034387;28;20547;-58
2023/05/21 01:28:00;;;;;;;8.68;4.68;;;14.00;99.90;;;;;;5034913;28;20029;-57
2023/05/21 01:30:27;;;;;;;8.00;4.30;;;14.00;99.90;;;;;;5039372;28;20063;-57
2023/05/21 01:33:19;;;;;;;9.45;4.97;;;14.00;99.90;;;;;;5036277;28;20048;-58
2023/05/21 01:35:57;;;;;;;7.55;4.53;;;14.00;99.90;;;;;;5040451;28;20512;-57
2023/05/21 01:38:40;;;;;;;8.35;5.10;;;13.90;99.90;;;;;;5036516;28;20056;-58
2023/05/21 01:41:10;;;;;;;8.40;4.47;;;14.00;99.90;;;;;;5036932;28;20048;-57
2023/05/21 01:43:43;;;;;;;8.65;4.90;;;13.90;99.90;;;;;;5040878;28;20094;-57
2023/05/21 01:46:09;;;;;;;;;;;14.00;99.90;;;;;;5036833;28;20041;-57
2023/05/21 01:48:35;;;;;;;9.20;5.43;;;13.90;99.90;;;;;;5038871;28;19920;-57
2023/05/21 01:51:04;;;;;;;6.95;5.00;;;13.90;99.90;;;;;;5040578;28;20440;-57
2023/05/21 01:53:30;;;;;;;7.47;5.10;;;13.90;99.90;;;;;;5042930;28;20054;-57
2023/05/21 01:55:56;;;;;;;7.75;5.47;;;13.90;99.90;;;;;;5050200;28;20036;-58
2023/05/21 01:58:23;;;;;;;8.95;4.93;;;13.90;99.90;;;;;;5042791;28;20044;-57
2023/05/21 02:00:51;;;;;;;8.05;4.97;;;13.90;99.90;;;;;;5036258;28;20385;-56
2023/05/21 02:03:19;;;;;;;10.10;5.60;;;13.90;99.90;;;;;;5038363;28;20419;-57
2023/05/21 02:05:45;;;;;;;7.22;5.28;;;13.90;99.90;;;;;;5024848;28;20449;-57
2023/05/21 02:08:13;;;;;;;10.77;5.63;;;13.90;99.90;;;;;;5039051;28;20401;-57
2023/05/21 02:10:39;;;;;;;8.80;5.85;;;13.90;99.90;;;;;;5032627;28;20052;-58
2023/05/21 02:13:05;;;;;;;10.90;6.20;;;13.90;99.90;;;;;;5035689;28;20033;-57
2023/05/21 02:15:33;;;;;;;9.43;6.10;;;13.90;99.90;;;;;;5036966;28;20071;-56
2023/05/21 02:17:59;;;;;;;9.98;6.00;;;13.80;99.90;;;;;;5036579;28;20072;-57
2023/05/21 02:20:25;;;;;;;9.40;6.10;;;13.80;99.90;;;;;;5037162;28;20083;-58
2023/05/21 02:22:50;;;;;;;13.23;6.57;;;13.80;99.90;;;;;;5036074;28;20140;-56
2023/05/21 02:25:18;;;;;;;11.77;6.50;;;13.80;99.90;;;;;;5044895;28;20032;-57
2023/05/21 02:27:45;;;;;;;9.05;6.43;;;13.80;99.90;;;;;;5040251;28;20430;-57
2023/05/21 02:30:12;;;;;;;8.98;5.97;;;13.70;99.90;;;;;;5044264;28;20048;-57
2023/05/21 02:32:41;;;;;;;13.45;6.90;;;13.70;99.90;;;;;;5041342;28;20076;-56
2023/05/21 02:35:09;;;;;;;10.50;6.00;;;13.70;99.90;;;;;;5041378;28;20115;-57
2023/05/21 02:37:36;;;;;;;13.57;6.10;;;13.60;99.90;;;;;;5038538;28;20123;-58
2023/05/21 02:40:04;;;;;;;11.65;5.55;;;13.60;99.90;;;;;;5035279;28;20131;-57
2023/05/21 02:42:30;;;;;;;14.38;6.30;;;13.50;99.90;;;;;;5040429;28;20505;-58
2023/05/21 02:44:56;;;;;;;11.18;6.32;;;13.50;99.90;;;;;;5042899;28;20098;-57
2023/05/21 02:47:22;;;;;;;12.20;6.53;;;13.40;99.90;;;;;;5035932;28;20049;-57
2023/05/21 02:49:49;;;;;;;9.50;6.38;;;13.40;99.90;;;;;;5035731;28;20528;-57
2023/05/21 02:52:17;;;;;;;11.02;6.40;;;13.40;99.90;;;;;;5037116;28;20590;-56
2023/05/21 02:54:44;;;;;;;11.15;7.78;;;13.40;99.90;;;;;;5034806;28;20523;-57
2023/05/21 02:57:10;;;;;;;9.23;5.93;;;13.30;99.90;;;;;;5040046;28;20405;-56
2023/05/21 02:59:36;;;;;;;10.18;6.38;;;13.30;99.90;;;;;;5040067;28;20045;-57
2023/05/21 03:02:01;;;;;;;9.77;6.30;;;13.30;99.90;;;;;;5034257;28;20106;-57
2023/05/21 03:04:27;;;;;;;11.55;6.78;;;13.30;99.90;;;;;;5034449;28;20074;-57
2023/05/21 03:06:54;;;;;;;10.52;6.57;;;13.30;99.90;;;;;;5022330;28;20103;-56
2023/05/21 03:09:23;;;;;;;12.48;7.03;;;13.30;99.90;;;;;;5025924;28;21277;-56
2023/05/21 03:11:49;;;;;;;12.25;7.25;;;13.30;99.90;;;;;;5039641;28;20047;-56
2023/05/21 03:14:15;;;;;;;12.15;7.72;;;13.20;99.90;;;;;;5036440;28;22299;-57
2023/05/21 03:16:42;;;;;;;11.68;6.85;;;13.20;99.90;;;;;;5018970;28;20038;-58
2023/05/21 03:19:12;;;;;;;14.05;7.63;;;13.20;99.90;;;;;;5038814;28;20049;-57
2023/05/21 03:21:38;;;;;;;14.95;7.55;;;13.20;99.90;;;;;;5023536;28;20041;-56
2023/05/21 03:24:05;;;;;;;12.55;7.32;;;13.20;99.90;;;;;;5035296;28;20661;-57
2023/05/21 03:26:31;;;;;;;10.45;6.85;;;13.10;99.90;;;;;;5039177;28;20041;-56
2023/05/21 03:28:57;;;;;;;10.50;7.38;;;13.10;99.90;;;;;;5040343;28;20047;-57
2023/05/21 03:31:23;;;;;;;13.48;7.68;;;13.10;99.90;;;;;;5037849;28;20162;-56
2023/05/21 03:33:50;;;;;;;14.65;7.53;;;13.10;99.90;;;;;;5037233;28;21209;-57
2023/05/21 03:36:16;;;;;;;11.77;6.85;;;13.10;99.90;;;;;;5038676;28;20052;-55
2023/05/21 03:38:41;;;;;;;12.60;6.85;;;13.10;99.90;;;;;;5037288;28;20084;-57
2023/05/21 03:41:08;;;;;;;14.20;7.10;;;13.10;99.90;;;;;;5037394;28;20107;-56
2023/05/21 03:43:33;;;;;;;11.82;6.53;;;13.10;99.90;;;;;;5037115;28;20049;-56
2023/05/21 03:45:59;;;;;;;10.57;6.60;;;13.10;99.90;;;;;;5034027;28;20609;-56
2023/05/21 03:48:25;;;;;;;13.77;7.30;;;13.20;99.90;;;;;;5040672;28;20041;-56
2023/05/21 03:50:50;;;;;;;13.50;6.68;;;13.20;99.90;;;;;;5034652;28;20121;-57
2023/05/21 03:53:16;;;;;;;14.20;7.28;;;13.20;99.90;;;;;;5036854;28;20072;-56
2023/05/21 03:55:42;;;;;;;11.75;7.07;;;13.20;99.90;;;;;;5038199;28;20043;-56
2023/05/21 03:58:09;;;;;;;14.88;7.43;;;13.10;99.90;;;;;;5021424;28;20068;-57
2023/05/21 04:00:39;;;;;;;10.55;6.45;;;13.10;99.90;;;;;;5040893;28;20044;-58
2023/05/21 04:03:05;;;;;;;11.55;6.40;;;13.10;99.90;;;;;;5034138;28;20037;-56
2023/05/21 04:05:32;;;;;;;13.70;6.55;;;13.20;99.90;;;;;;5015173;28;20043;-57
2023/05/21 04:07:58;;;;;;;12.23;6.20;;;13.20;99.90;;;;;;5035671;28;20045;-56
2023/05/21 04:10:25;;;;;;;16.02;6.57;;;13.20;99.90;;;;;;5036578;28;20451;-57
2023/05/21 04:12:51;;;;;;;14.20;6.50;;;13.10;99.90;;;;;;5032688;28;20134;-56
2023/05/21 04:15:18;;;;;;;12.57;5.88;;;13.10;99.90;;;;;;5037203;28;20044;-57
2023/05/21 04:17:44;;;;;;;13.07;6.18;;;13.10;99.90;;;;;;5037381;28;20046;-57
2023/05/21 04:20:15;;;;;;;14.52;5.88;;;13.10;99.90;;;;;;5038048;28;20080;-57
2023/05/21 04:22:44;;;;;;;12.25;5.80;;;13.10;99.90;;;;;;5038017;28;20041;-55
2023/05/21 04:25:10;;;;;;;14.35;6.15;;;13.20;99.90;;;;;;5039711;28;22014;-57
2023/05/21 04:27:36;;;;;;;16.00;5.80;;;13.20;99.90;;;;;;5040665;28;20037;-57
2023/05/21 04:30:05;;;;;;;12.10;5.85;;;13.20;99.90;;;;;;5038155;28;20048;-56
2023/05/21 04:32:32;;;;;;;13.10;5.75;;;13.20;99.90;;;;;;5038375;28;20079;-57
2023/05/21 04:34:59;;;;;;;12.80;6.18;;;13.20;99.90;;;;;;5038021;28;21014;-56
2023/05/21 04:37:26;;;;;;;11.82;5.40;;;13.20;99.90;;;;;;5039674;28;20441;-56
2023/05/21 04:39:53;;;;;;;13.15;5.88;;;13.30;99.90;;;;;;5030766;28;20059;-56
2023/05/21 04:42:22;;;;;;;13.32;5.88;;;13.20;99.90;;;;;;5040213;28;20091;-57
2023/05/21 04:44:48;;;;;;;11.32;5.55;;;13.30;99.90;;;;;;5036654;28;20049;-56
2023/05/21 04:47:14;;;;;;;11.32;5.40;;;13.30;99.90;;;;;;5039611;28;20040;-57
2023/05/21 04:49:40;;;;;;;10.10;5.28;;;13.10;99.90;;;;;;5036847;28;20037;-57
2023/05/21 04:52:07;;;;;;;8.60;5.20;;;13.30;99.90;;;;;;5043679;28;20056;-56
2023/05/21 04:54:33;;;;;;;10.95;5.32;;;13.30;99.90;;;;;;5037006;28;20058;-56
2023/05/21 04:56:58;;;;;;;13.75;5.38;;;13.30;99.90;;;;;;5029470;28;20064;-54
2023/05/21 04:59:24;;;;;;;10.20;5.30;;;13.40;99.90;;;;;;5041806;28;20052;-55
2023/05/21 05:01:50;;;;;;;13.10;5.80;;;13.40;99.90;;;;;;5037126;28;20140;-57
2023/05/21 05:04:15;;;;;;;11.32;5.07;;;13.40;99.90;;;;;;5044504;28;20033;-57
2023/05/21 05:06:41;;;;;;;10.50;4.90;;;13.40;99.90;;;;;;5039459;28;20111;-57
2023/05/21 05:09:07;;;;;;;12.80;4.80;;;13.40;99.90;;;;;;5040372;28;20039;-56
2023/05/21 05:11:33;;;;;;;12.98;5.20;;;13.50;99.90;;;;;;5039087;28;20049;-57
2023/05/21 05:13:58;;;;;;;10.43;4.63;;;13.50;99.90;;;;;;5039792;28;20378;-57
2023/05/21 05:16:24;;;;;;;9.25;5.00;;;13.50;99.90;;;;;;5038616;28;20163;-57
2023/05/21 05:18:53;;;;;;;8.82;5.00;;;13.60;99.90;;;;;;5041384;28;20053;-57
2023/05/21 05:21:21;;;;;;;10.93;4.85;;;13.60;99.90;;;;;;5040426;28;20515;-57
2023/05/21 05:23:46;;;;;;;10.13;5.05;;;13.60;99.90;;;;;;5041006;28;20040;-56
2023/05/21 05:26:12;;;;;;;9.48;4.53;;;13.70;99.90;;;;;;5044049;28;20388;-57
2023/05/21 05:28:38;;;;;;;11.82;4.93;;;13.70;99.90;;;;;;5037338;28;20037;-57
2023/05/21 05:31:04;;;;;;;10.02;5.13;;;13.70;99.90;;;;;;5046424;28;20111;-55
2023/05/21 05:33:30;;;;;;;10.60;5.07;;;13.80;99.90;;;;;;5044128;28;20810;-58
2023/05/21 05:35:55;;;;;;;14.38;4.88;;;13.90;99.90;;;;;;5038633;28;20033;-57
2023/05/21 05:38:21;;;;;;;11.68;4.65;;;13.90;99.90;;;;;;5035039;28;20128;-57
2023/05/21 05:40:47;;;;;;;11.63;4.78;;;13.90;99.90;;;;;;5041028;28;20037;-57
2023/05/21 05:43:12;;;;;;;11.50;4.50;;;13.90;99.90;;;;;;5041314;28;20053;-57
2023/05/21 05:45:38;;;;;;;13.02;5.38;;;14.00;99.90;;;;;;5031491;28;20457;-58
2023/05/21 05:48:04;;;;;;;8.00;4.70;;;14.10;99.90;;;;;;5024456;28;20353;-57
2023/05/21 05:50:30;;;;;;;11.63;5.28;;;14.10;99.90;;;;;;5029786;28;20126;-57
2023/05/21 05:52:56;;;;;;;11.18;4.50;;;14.10;99.90;;;;;;5034502;28;20067;-57
2023/05/21 05:55:23;;;;;;;10.73;4.88;;;14.20;99.90;;;;;;5033840;28;20095;-57
2023/05/21 05:57:50;;;;;;;9.23;4.60;;;14.20;99.90;;;;;;5035038;28;20048;-56
2023/05/21 06:00:16;;;;;;;10.38;4.57;;;14.30;99.90;;;;;;5037727;28;20063;-56
2023/05/21 06:02:41;;;;;;;12.30;4.63;;;14.30;99.90;;;;;;5035416;28;20041;-56
2023/05/21 06:05:08;;;;;;;10.82;4.85;;;14.40;99.90;;;;;;5025993;28;20985;-56
2023/05/21 06:07:37;;;;;;;11.45;4.43;;;14.40;99.90;;;;;;5030614;28;20118;-56
2023/05/21 06:10:04;;;;;;;8.25;4.20;;;14.50;99.90;;;;;;5033451;28;20119;-57
2023/05/21 06:12:30;;;;;;;8.82;4.40;;;14.50;99.90;;;;;;5037784;28;20076;-57
2023/05/21 06:14:55;;;;;;;10.10;4.80;;;14.60;99.90;;;;;;5038937;28;20049;-57
2023/05/21 06:17:21;;;;;;;8.80;4.50;;;14.60;99.90;;;;;;5038853;28;20056;-57
2023/05/21 06:19:47;;;;;;;13.32;4.95;;;14.70;99.90;;;;;;5044929;28;20458;-56
2023/05/21 06:22:13;;;;;;;9.55;5.30;;;14.70;99.90;;;;;;5044348;28;20056;-55
2023/05/21 06:24:38;;;;;;;12.88;5.38;;;14.70;99.90;;;;;;5038357;28;20376;-57
2023/05/21 06:27:04;;;;;;;10.43;4.63;;;14.80;99.90;;;;;;5036711;28;20048;-56
2023/05/21 06:29:30;;;;;;;11.73;5.40;;;14.80;99.90;;;;;;5042201;28;20037;-58
2023/05/21 06:31:56;;;;;;;8.73;4.72;;;14.80;99.90;;;;;;5040493;28;20124;-57
2023/05/21 06:34:22;;;;;;;9.38;4.90;;;14.80;99.90;;;;;;5042087;28;20571;-56
2023/05/21 06:36:47;;;;;;;10.05;4.97;;;14.80;99.90;;;;;;5039158;28;20049;-57
2023/05/21 06:39:13;;;;;;;11.65;4.97;;;14.90;99.90;;;;;;5035469;28;20041;-57
2023/05/21 06:41:39;;;;;;;9.63;5.13;;;14.90;99.90;;;;;;5041082;28;21340;-57
2023/05/21 06:44:05;;;;;;;11.95;4.53;;;14.90;99.90;;;;;;5037254;28;20504;-57
2023/05/21 06:46:31;;;;;;;8.80;4.45;;;15.00;99.90;;;;;;5036304;28;20033;-57
2023/05/21 06:48:56;;;;;;;12.05;5.18;;;15.00;99.90;;;;;;5021204;28;20036;-53
2023/05/21 06:51:22;;;;;;;14.43;4.70;;;15.10;99.90;;;;;;5027235;28;20049;-55
2023/05/21 06:53:48;;;;;;;9.10;4.85;;;15.10;99.90;;;;;;5034820;28;20110;-58
2023/05/21 06:56:14;;;;;;;9.90;4.53;;;15.10;99.90;;;;;;5040073;28;20171;-56
2023/05/21 06:58:39;;;;;;;9.88;4.65;;;15.20;99.90;;;;;;5041423;28;20075;-57
2023/05/21 07:01:05;;;;;;;7.78;4.60;;;15.20;99.90;;;;;;5035484;28;20036;-57
2023/05/21 07:03:31;;;;;;;7.15;4.57;;;15.20;99.90;;;;;;5040962;28;20045;-55
2023/05/21 07:05:57;;;;;;;7.82;4.22;;;15.30;99.90;;;;;;5030994;28;20038;-57
2023/05/21 07:08:23;;;;;;;8.20;3.97;;;15.30;99.90;;;;;;5032285;28;20071;-56
2023/05/21 07:10:49;;;;;;;10.48;4.43;;;15.40;99.90;;;;;;5034787;28;20478;-56
2023/05/21 07:13:15;;;;;;;7.25;4.40;;;15.40;99.90;;;;;;5035083;28;20619;-57
2023/05/21 07:15:41;;;;;;;9.27;4.28;;;15.40;99.90;;;;;;5036341;28;20142;-57
2023/05/21 07:18:07;;;;;;;10.88;4.65;;;15.50;99.90;;;;;;5037562;28;20120;-57
2023/05/21 07:20:32;;;;;;;8.40;4.18;;;15.60;99.90;;;;;;5039670;28;20044;-56
2023/05/21 07:22:58;;;;;;;8.43;4.18;;;15.60;99.90;;;;;;5035530;28;20067;-56
2023/05/21 07:25:24;;;;;;;11.18;4.57;;;15.60;99.90;;;;;;5041226;28;20033;-56
2023/05/21 07:27:50;;;;;;;10.85;4.35;;;15.60;99.90;;;;;;5021291;28;20068;-57
2023/05/21 07:30:15;;;;;;;8.45;4.25;;;15.70;99.90;;;;;;5038521;28;20044;-56
2023/05/21 07:32:41;;;;;;;13.63;4.30;;;15.70;99.90;;;;;;5038755;28;20041;-57
2023/05/21 07:35:07;;;;;;;7.57;4.35;;;15.70;99.90;;;;;;5038297;28;20513;-56
2023/05/21 07:37:33;;;;;;;10.48;3.92;;;15.70;99.90;;;;;;5036634;28;20040;-57
2023/05/21 07:39:59;;;;;;;9.05;4.45;;;15.70;99.90;;;;;;5039012;28;20041;-57
2023/05/21 07:42:25;;;;;;;10.18;4.18;;;15.70;99.90;;;;;;5035691;28;20120;-56
2023/05/21 07:44:51;;;;;;;6.88;4.05;;;15.70;99.90;;;;;;5038905;28;20051;-57
2023/05/21 07:47:16;;;;;;;9.20;4.00;;;15.70;99.90;;;;;;5037322;28;20025;-55
2023/05/21 07:49:42;;;;;;;7.45;3.97;;;15.70;99.90;;;;;;5032257;28;20107;-57
2023/05/21 07:52:08;;;;;;;11.85;4.20;;;15.80;99.90;;;;;;5031667;28;20048;-57
2023/05/21 07:54:34;;;;;;;8.23;3.78;;;15.80;99.90;;;;;;5010328;28;20056;-57
2023/05/21 07:57:01;;;;;;;7.20;3.90;;;15.90;99.90;;;;;;5033985;28;20059;-56
2023/05/21 07:59:27;;;;;;;11.80;4.07;;;16.00;99.90;;;;;;5036484;28;20515;-58
2023/05/21 08:01:53;;;;;;;15.57;4.40;;;16.10;99.90;;;;;;5037385;28;20049;-57
2023/05/21 08:04:19;;;;;;;9.88;4.07;;;16.10;99.90;;;;;;5035089;28;20041;-58
2023/05/21 08:06:45;;;;;;;8.38;4.05;;;16.20;99.90;;;;;;5036847;28;20463;-57
2023/05/21 08:09:11;;;;;;;13.65;4.15;;;16.30;99.90;;;;;;5038584;28;20033;-57
2023/05/21 08:11:37;;;;;;;8.02;4.43;;;16.30;99.90;;;;;;5034042;28;20098;-57
2023/05/21 08:14:02;;;;;;;9.50;3.80;;;16.40;99.90;;;;;;5037433;28;20083;-58
2023/05/21 08:16:28;;;;;;;8.30;4.10;;;16.50;99.90;;;;;;5031229;28;20071;-57
2023/05/21 08:18:54;;;;;;;12.77;3.90;;;16.60;99.90;;;;;;5035424;28;20033;-57
2023/05/21 08:21:20;;;;;;;8.15;4.20;;;16.70;99.90;;;;;;5037804;28;20049;-57
2023/05/21 08:23:46;;;;;;;9.88;4.40;;;16.70;99.90;;;;;;5032681;28;20044;-57
2023/05/21 08:26:15;;;;;;;10.15;3.92;;;16.70;99.90;;;;;;5030629;28;20079;-57
2023/05/21 08:28:41;;;;;;;9.95;4.15;;;16.80;99.90;;;;;;5032194;28;20048;-58
2023/05/21 08:31:06;;;;;;;7.60;3.75;;;16.80;99.90;;;;;;5034045;28;20099;-57
2023/05/21 08:33:37;;;;;;;8.68;4.43;;;16.90;99.90;;;;;;5035921;28;20132;-56
2023/05/21 08:36:05;;;;;;;12.27;4.47;;;17.00;99.90;;;;;;5038125;28;20037;-57
2023/05/21 08:38:31;;;;;;;13.77;4.15;;;17.00;99.90;;;;;;5035175;28;20040;-58
2023/05/21 08:40:58;;;;;;;12.32;4.38;;;17.00;99.90;;;;;;5039879;28;20043;-58
2023/05/21 08:43:28;;;;;;;7.97;4.22;;;17.10;99.90;;;;;;5037412;28;20053;-57
2023/05/21 08:45:57;;;;;;;9.10;4.13;;;17.10;99.90;;;;;;5035209;28;20041;-57
2023/05/21 08:48:24;;;;;;;11.88;4.13;;;17.20;99.90;;;;;;5033890;28;20044;-58
2023/05/21 08:50:51;;;;;;;8.35;3.78;;;17.20;99.90;;;;;;5032387;28;20041;-58
2023/05/21 08:53:17;;;;;;;8.45;3.78;;;17.20;99.90;;;;;;5035918;28;20053;-57
2023/05/21 08:55:43;;;;;;;8.32;4.53;;;17.20;99.90;;;;;;5037888;28;20094;-56
2023/05/21 08:58:09;;;;;;;9.82;3.92;;;17.30;99.90;;;;;;5026656;28;20053;-58
2023/05/21 09:00:36;;;;;;;10.77;3.92;;;17.30;99.90;;;;;;5025817;28;20069;-58
2023/05/21 09:03:06;;;;;;;6.28;3.80;;;17.40;99.90;;;;;;5032134;28;20087;-56
2023/05/21 09:05:42;;;;;;;9.50;4.28;;;17.50;99.90;;;;;;5024477;28;20192;-57
2023/05/21 09:08:31;;;;;;;7.47;3.72;;;17.60;99.90;;;;;;5027305;28;20041;-56
2023/05/21 09:10:56;;;;;;;12.95;4.18;;;17.80;99.90;;;;;;5029319;28;20048;-57
2023/05/21 09:13:25;;;;;;;7.28;3.92;;;17.90;99.90;;;;;;5036667;28;20073;-57
2023/05/21 09:15:51;;;;;;;8.57;3.85;;;18.10;99.90;;;;;;5029094;28;20388;-56
2023/05/21 09:18:16;;;;;;;9.80;3.90;;;18.10;99.90;;;;;;5027411;28;20053;-58
2023/05/21 09:20:42;;;;;;;10.68;3.88;;;18.10;99.90;;;;;;5034998;28;20132;-58
2023/05/21 09:23:15;;;;;;;6.45;3.75;;;18.20;99.90;;;;;;5033273;28;20045;-58
2023/05/21 09:25:47;;;;;;;9.52;3.92;;;18.30;99.90;;;;;;5027969;28;20074;-58
2023/05/21 09:28:18;;;;;;;7.75;3.90;;;18.30;99.90;;;;;;5027967;28;20236;-58
2023/05/21 09:30:48;;;;;;;9.35;4.03;;;18.30;99.90;;;;;;5027174;28;20045;-57
2023/05/21 09:33:30;;;;;;;7.53;4.10;;;18.30;99.90;;;;;;5029706;28;20217;-57
2023/05/21 09:35:56;;;;;;;11.57;4.13;;;18.30;99.90;;;;;;5033106;28;20127;-58
2023/05/21 09:38:24;;;;;;;9.60;4.00;;;18.40;99.90;;;;;;5035253;28;20051;-57
2023/05/21 09:40:50;;;;;;;15.13;4.05;;;18.50;99.90;;;;;;5034708;28;20049;-57
2023/05/21 09:43:16;;;;;;;5.80;3.58;;;18.70;99.90;;;;;;5032968;28;20059;-58
2023/05/21 09:45:56;;;;;;;9.73;4.35;;;18.80;99.90;;;;;;5033009;28;20132;-57
2023/05/21 09:48:48;;;;;;;10.95;3.90;;;18.90;99.90;;;;;;5031666;28;20042;-56
2023/05/21 09:51:15;;;;;;;9.18;3.85;;;19.00;99.90;;;;;;5025708;28;20091;-58
2023/05/21 09:53:54;;;;;;;8.82;4.18;;;19.10;99.90;;;;;;5037607;28;20079;-57
2023/05/21 09:56:22;;;;;;;10.82;4.20;;;19.00;99.90;;;;;;5040196;28;20044;-56
2023/05/21 09:58:50;;;;;;;6.63;3.90;;;19.00;99.90;;;;;;5033420;28;20045;-56
2023/05/21 10:01:18;;;;;;;6.20;3.90;;;19.00;99.90;;;;;;5020625;28;20038;-59
2023/05/21 10:03:46;;;;;;;9.07;3.78;;;19.00;99.90;;;;;;5034245;28;20037;-58
2023/05/21 10:06:13;;;;;;;8.45;3.55;;;19.10;99.90;;;;;;5036712;28;20033;-57
2023/05/21 10:08:43;;;;;;;10.52;3.80;;;19.20;99.90;;;;;;5035888;28;20037;-56
2023/05/21 10:11:10;;;;;;;8.82;3.63;;;19.30;99.90;;;;;;5037207;28;20052;-57
2023/05/21 10:13:47;;;;;;;7.65;4.03;;;19.40;99.90;;;;;;5039148;28;20036;-58
2023/05/21 10:16:14;;;;;;;7.82;3.90;;;19.40;99.90;;;;;;5032916;28;20068;-58
2023/05/21 10:18:45;;;;;;;8.80;4.28;;;19.40;99.90;;;;;;5035476;28;20040;-58
2023/05/21 10:21:11;;;;;;;11.57;4.13;;;19.40;99.90;;;;;;5040383;28;20106;-58
2023/05/21 10:23:38;;;;;;;8.85;3.80;;;19.40;99.90;;;;;;5034128;28;20040;-57
2023/05/21 10:26:05;;;;;;;6.93;4.43;;;19.40;99.90;;;;;;5019280;28;20167;-58
2023/05/21 10:28:32;;;;;;;8.55;3.92;;;19.50;99.90;;;;;;5032128;28;20037;-58
2023/05/21 10:30:59;;;;;;;12.07;3.75;;;19.50;99.90;;;;;;5025522;28;20037;-56
2023/05/21 10:33:26;;;;;;;6.80;3.30;;;19.60;99.90;;;;;;5027097;28;20052;-58
2023/05/21 10:35:53;;;;;;;7.93;3.50;;;19.60;99.90;;;;;;5031871;28;20082;-56
2023/05/21 10:38:19;;;;;;;7.55;3.88;;;19.70;99.90;;;;;;5035429;28;20053;-57
2023/05/21 10:40:47;;;;;;;10.25;3.83;;;19.70;99.90;;;;;;5028072;28;20045;-58
2023/05/21 10:43:16;;;;;;;9.38;3.90;;;19.70;99.90;;;;;;5035700;28;20044;-57
2023/05/21 10:46:00;;;;;;;7.47;3.67;;;19.70;99.90;;;;;;5027944;28;20049;-58
2023/05/21 10:48:57;;;;;;;8.38;3.45;;;19.80;99.90;;;;;;5033292;28;20082;-58
2023/05/21 10:52:00;;;;;;;8.02;4.10;;;19.90;99.90;;;;;;5037426;28;21284;-57
2023/05/21 10:54:25;;;;;;;;;;;20.00;99.90;;;;;;5036550;28;20095;-58
2023/05/21 10:56:59;;;;;;;9.48;3.88;;;20.00;99.90;;;;;;5023831;28;20943;-57
2023/05/21 10:59:41;;;;;;;8.10;3.97;;;20.20;99.90;;;;;;5018582;28;20472;-58
2023/05/21 11:02:08;;;;;;;;;;;20.30;99.90;;;;;;5016318;28;20496;-58
2023/05/21 11:04:38;;;;;;;7.10;3.95;;;20.30;99.90;;;;;;5039227;28;19917;-57
2023/05/21 11:07:04;;;;;;;9.63;3.90;;;20.40;99.80;;;;;;5032628;28;20124;-56
2023/05/21 11:09:30;;;;;;;6.93;3.95;;;20.40;99.80;;;;;;5028635;28;20051;-56
2023/05/21 11:11:57;;;;;;;10.98;4.35;;;20.40;99.70;;;;;;5035508;28;20069;-57
2023/05/21 11:14:41;;;;;;;13.30;4.32;;;20.30;99.50;;;;;;5034138;28;20894;-57
2023/05/21 11:17:11;;;;;;;13.55;4.07;;;20.20;99.60;;;;;;5030873;28;20065;-58
2023/05/21 11:19:46;;;;;;;8.13;4.40;;;20.20;99.80;;;;;;5036675;28;20059;-58
2023/05/21 11:22:24;;;;;;;12.20;4.57;;;20.20;99.80;;;;;;5030376;28;20049;-58
2023/05/21 11:24:52;;;;;;;8.55;4.85;;;20.30;99.90;;;;;;5028850;28;20075;-58
2023/05/21 11:27:35;;;;;;;10.98;4.50;;;20.40;99.90;;;;;;5024259;28;20547;-57
2023/05/21 11:30:04;;;;;;;9.45;4.88;;;20.50;99.90;;;;;;5038485;28;20447;-58
2023/05/21 11:32:30;;;;;;;6.88;4.00;;;20.60;99.90;;;;;;5032618;28;20047;-58
2023/05/21 11:35:00;;;;;;;11.02;4.75;;;20.70;99.90;;;;;;5029904;28;20048;-58
2023/05/21 11:37:28;;;;;;;6.82;4.50;;;20.90;99.90;;;;;;5036291;28;20041;-57
2023/05/21 11:40:15;;;;;;;10.60;5.38;;;21.00;99.90;;;;;;5030555;28;20077;-58
2023/05/21 11:42:42;;;;;;;10.07;4.68;;;21.20;99.90;;;;;;5027962;28;20590;-58
2023/05/21 11:45:09;;;;;;;16.58;5.20;;;21.40;99.50;;;;;;5028997;28;20591;-58
2023/05/21 11:47:35;;;;;;;9.45;4.88;;;21.40;99.60;;;;;;5026878;28;20554;-57
2023/05/21 11:50:02;;;;;;;9.90;4.93;;;21.50;99.50;;;;;;5028156;28;20039;-57
2023/05/21 11:52:31;;;;;;;10.93;5.43;;;21.60;99.40;;;;;;5034965;28;20045;-57
2023/05/21 11:54:58;;;;;;;9.48;5.50;;;21.70;99.10;;;;;;5033234;28;20054;-58
2023/05/21 11:57:31;;;;;;;15.35;5.63;;;21.70;98.80;;;;;;5030403;28;20103;-57
2023/05/21 12:00:00;;;;;;;12.45;5.43;;;21.70;98.60;;;;;;5031483;28;20060;-58
2023/05/21 12:02:31;;;;;;;10.80;5.38;;;21.70;98.60;;;;;;5030326;28;20501;-58
2023/05/21 12:04:59;;;;;;;11.52;5.35;;;21.80;98.80;;;;;;5035407;28;20093;-58
2023/05/21 12:07:30;;;;;;;12.25;5.95;;;21.80;98.80;;;;;;5028977;28;20043;-59
2023/05/21 12:09:57;;;;;;;9.68;5.68;;;21.90;98.50;;;;;;5034219;28;20051;-56
2023/05/21 12:12:26;;;;;;;10.70;6.38;;;21.80;98.40;;;;;;5033521;28;20041;-59
2023/05/21 12:14:54;;;;;;;10.55;6.28;;;21.80;98.20;;;;;;5036914;28;20098;-58
2023/05/21 12:17:25;;;;;;;10.35;6.05;;;21.70;98.40;;;;;;5028921;28;20381;-59
2023/05/21 12:19:55;;;;;;;16.80;7.10;;;21.70;98.50;;;;;;5042140;28;20041;-59
2023/05/21 12:22:23;;;;;;;14.07;6.85;;;21.70;98.70;;;;;;5035989;28;20057;-58
2023/05/21 12:24:50;;;;;;;10.18;6.90;;;21.70;98.60;;;;;;5041336;28;20191;-58
2023/05/21 12:27:17;;;;;;;9.95;7.30;;;21.70;98.70;;;;;;5033477;28;20040;-58
2023/05/21 12:29:45;;;;;;;16.05;6.88;;;21.60;98.70;;;;;;5029457;28;20067;-58
2023/05/21 12:32:13;;;;;;;10.85;7.32;;;21.50;98.60;;;;;;5024522;28;20045;-58
2023/05/21 12:34:48;;;;;;;13.10;6.97;;;21.40;98.80;;;;;;5023067;28;20075;-57
2023/05/21 12:37:25;;;;;;;15.05;7.88;;;21.30;98.70;;;;;;5034883;28;20041;-58
2023/05/21 12:39:53;;;;;;;14.25;7.60;;;21.30;99.10;;;;;;5032716;28;20749;-59
2023/05/21 12:42:26;;;;;;;13.50;8.15;;;21.20;99.30;;;;;;5032756;28;20828;-58
2023/05/21 12:44:52;;;;;;;23.27;9.15;;;21.20;99.20;;;;;;5023687;28;20056;-58
2023/05/21 12:47:21;;;;;;;13.35;7.90;;;21.30;99.60;;;;;;5022284;28;21449;-56